createdAt,value
2019-02-16T00:01:57.534Z,72.27
2019-02-16T00:04:29.522Z,72.33
2019-02-16T00:07:01.518Z,72.37
2019-02-16T00:09:33.576Z,71.95
2019-02-16T00:12:05.626Z,72.00
2019-02-16T00:14:37.632Z,71.79
2019-02-16T00:17:09.611Z,71.95
2019-02-16T00:19:41.579Z,71.77
2019-02-16T00:22:13.592Z,72.03
2019-02-16T00:24:45.710Z,72.09
2019-02-16T00:27:17.698Z,72.18
2019-02-16T00:29:49.711Z,72.32
2019-02-16T00:32:21.678Z,72.32
2019-02-16T00:34:53.692Z,72.57
2019-02-16T00:37:25.684Z,73.02
2019-02-16T00:39:57.656Z,73.23
2019-02-16T00:42:29.664Z,73.18
2019-02-16T00:45:01.637Z,72.92
2019-02-16T00:47:33.626Z,73.23
2019-02-16T00:50:05.720Z,73.62
2019-02-16T00:52:37.694Z,73.29
2019-02-16T00:55:09.675Z,72.97
2019-02-16T00:57:41.660Z,73.23
2019-02-16T01:00:13.809Z,73.35
2019-02-16T01:02:45.838Z,73.38
2019-02-16T01:05:17.808Z,73.47
2019-02-16T01:07:49.815Z,73.18
2019-02-16T01:10:21.792Z,72.92
2019-02-16T01:12:53.851Z,72.87
2019-02-16T01:15:25.855Z,72.72
2019-02-16T01:17:57.841Z,72.72
2019-02-16T01:20:29.801Z,72.93
2019-02-16T01:23:01.789Z,73.35
2019-02-16T01:25:33.760Z,73.39
2019-02-16T01:28:05.729Z,73.44
2019-02-16T01:30:37.701Z,73.59
2019-02-16T01:33:09.695Z,74.01
2019-02-16T01:35:41.709Z,73.87
2019-02-16T01:38:13.704Z,73.92
2019-02-16T01:40:45.701Z,73.79
2019-02-16T01:43:17.730Z,73.94
2019-02-16T01:45:49.720Z,73.97
2019-02-16T01:48:21.721Z,75.27
2019-02-16T01:50:53.711Z,75.17
2019-02-16T01:53:26.548Z,75.86
2019-02-16T01:55:58.542Z,75.84
2019-02-16T01:58:30.538Z,75.32
2019-02-16T02:01:02.490Z,75.12
2019-02-16T02:03:34.577Z,75.24
2019-02-16T02:06:06.570Z,75.01
2019-02-16T02:08:38.564Z,74.78
2019-02-16T02:11:10.527Z,74.91
2019-02-16T02:13:42.525Z,74.63
2019-02-16T02:16:14.523Z,73.93
2019-02-16T02:18:46.526Z,74.09
2019-02-16T02:21:18.540Z,74.28
2019-02-16T02:23:50.498Z,74.23
2019-02-16T02:26:22.480Z,74.21
2019-02-16T02:28:54.445Z,74.35
2019-02-16T02:31:26.447Z,74.43
2019-02-16T02:33:58.417Z,74.07
2019-02-16T02:36:30.409Z,74.22
2019-02-16T02:39:04.019Z,74.07
2019-02-16T02:41:36.040Z,73.88
2019-02-16T02:44:08.008Z,73.35
2019-02-16T02:46:40.043Z,73.11
2019-02-16T02:49:12.010Z,73.21
2019-02-16T02:51:51.654Z,73.67
2019-02-16T02:54:17.901Z,74.89
2019-02-16T02:56:49.879Z,74.96
2019-02-16T02:59:21.865Z,74.55
2019-02-16T03:01:53.829Z,74.59
2019-02-16T03:04:25.792Z,74.26
2019-02-16T03:06:57.819Z,74.69
2019-02-16T03:09:29.768Z,74.78
2019-02-16T03:12:01.741Z,74.49
2019-02-16T03:14:33.751Z,74.56
2019-02-16T03:17:05.733Z,74.59
2019-02-16T03:19:37.706Z,74.12
2019-02-16T03:22:09.687Z,74.35
2019-02-16T03:24:41.660Z,74.18
2019-02-16T03:27:49.004Z,73.66
2019-02-16T03:31:04.622Z,73.81
2019-02-16T03:33:50.346Z,74.32
2019-02-16T03:37:12.959Z,73.84
2019-02-16T03:39:45.920Z,74.29
2019-02-16T03:42:17.908Z,74.53
2019-02-16T03:44:49.863Z,74.63
2019-02-16T03:47:21.859Z,74.71
2019-02-16T03:49:53.836Z,74.50
2019-02-16T03:52:25.835Z,74.41
2019-02-16T03:54:57.790Z,74.06
2019-02-16T03:57:29.814Z,74.21
2019-02-16T04:00:01.784Z,74.44
2019-02-16T04:02:33.747Z,74.59
2019-02-16T04:05:05.968Z,74.72
2019-02-16T04:07:37.960Z,74.43
2019-02-16T04:10:09.947Z,74.69
2019-02-16T04:12:41.972Z,74.90
2019-02-16T04:15:13.934Z,74.84
2019-02-16T04:17:46.020Z,74.84
2019-02-16T04:20:18.007Z,74.59
2019-02-16T04:22:49.999Z,74.53
2019-02-16T04:25:22.037Z,74.57
2019-02-16T04:27:53.993Z,75.41
2019-02-16T04:30:25.981Z,75.46
2019-02-16T04:32:57.941Z,75.81
2019-02-16T04:35:29.931Z,75.84
2019-02-16T04:38:01.896Z,75.78
2019-02-16T04:40:33.887Z,75.62
2019-02-16T04:43:05.889Z,75.51
2019-02-16T04:45:37.887Z,75.28
2019-02-16T04:48:09.854Z,75.20
2019-02-16T04:50:41.826Z,75.50
2019-02-16T04:53:13.780Z,75.48
2019-02-16T04:55:45.780Z,75.11
2019-02-16T04:58:17.726Z,75.07
2019-02-16T05:00:49.725Z,75.03
2019-02-16T05:03:21.762Z,75.17
2019-02-16T05:05:53.746Z,75.17
2019-02-16T05:08:25.696Z,75.11
2019-02-16T05:10:57.668Z,75.21
2019-02-16T05:13:29.652Z,75.19
2019-02-16T05:16:01.625Z,75.23
2019-02-16T05:18:33.566Z,75.03
2019-02-16T05:21:05.561Z,74.31
2019-02-16T05:23:37.522Z,74.19
2019-02-16T05:26:09.503Z,74.20
2019-02-16T05:28:41.470Z,74.34
2019-02-16T05:31:13.477Z,74.25
2019-02-16T05:33:45.448Z,74.33
2019-02-16T05:36:17.436Z,74.66
2019-02-16T05:38:49.404Z,74.74
2019-02-16T05:41:21.428Z,74.79
2019-02-16T05:43:53.399Z,74.97
2019-02-16T05:46:25.387Z,74.95
2019-02-16T05:48:57.357Z,75.11
2019-02-16T05:51:29.451Z,75.16
2019-02-16T05:54:01.427Z,75.07
2019-02-16T05:56:33.412Z,75.15
2019-02-16T05:59:05.369Z,75.19
2019-02-16T06:01:37.360Z,75.65
2019-02-16T06:04:09.371Z,76.01
2019-02-16T06:06:41.368Z,76.22
2019-02-16T06:09:13.349Z,76.29
2019-02-16T06:11:45.334Z,75.99
2019-02-16T06:14:17.341Z,75.97
2019-02-16T06:16:49.364Z,76.19
2019-02-16T06:19:21.311Z,76.31
2019-02-16T06:21:53.348Z,76.32
2019-02-16T06:24:25.340Z,76.24
2019-02-16T06:26:57.310Z,76.29
2019-02-16T06:29:29.318Z,76.11
2019-02-16T06:32:01.299Z,76.52
2019-02-16T06:34:33.309Z,76.58
2019-02-16T06:37:24.556Z,76.55
2019-02-16T06:39:56.543Z,76.82
2019-02-16T06:42:28.545Z,76.79
2019-02-16T06:45:00.527Z,76.80
2019-02-16T06:47:32.517Z,76.90
2019-02-16T06:50:04.591Z,77.01
2019-02-16T06:52:36.599Z,76.92
2019-02-16T06:55:08.556Z,77.09
2019-02-16T06:57:43.996Z,77.11
2019-02-16T07:00:18.523Z,77.24
2019-02-16T07:02:50.532Z,77.34
2019-02-16T07:05:22.499Z,76.66
2019-02-16T07:07:54.515Z,75.98
2019-02-16T07:10:26.510Z,75.42
2019-02-16T07:12:58.516Z,74.44
2019-02-16T07:15:30.560Z,74.14
2019-02-16T07:18:12.030Z,73.35
2019-02-16T07:20:44.051Z,71.90
2019-02-16T07:23:22.141Z,71.93
2019-02-16T07:25:49.986Z,70.94
2019-02-16T07:28:22.016Z,70.35
2019-02-16T07:30:54.014Z,69.95
2019-02-16T07:33:26.031Z,69.52
2019-02-16T07:35:58.023Z,68.97
2019-02-16T07:38:30.029Z,67.75
2019-02-16T07:41:02.085Z,67.67
2019-02-16T07:43:53.681Z,67.78
2019-02-16T07:46:54.291Z,66.05
2019-02-16T07:49:32.762Z,66.73
2019-02-16T07:52:24.340Z,66.51
2019-02-16T07:55:03.583Z,66.07
2019-02-16T07:57:56.382Z,65.51
2019-02-16T08:00:37.721Z,64.98
2019-02-16T08:03:17.724Z,64.13
2019-02-16T08:06:08.139Z,64.46
2019-02-16T08:08:58.781Z,63.75
2019-02-16T08:11:43.509Z,63.36
2019-02-16T08:14:33.659Z,62.64
2019-02-16T08:17:28.278Z,60.65
2019-02-16T08:20:19.838Z,61.29
2019-02-16T08:23:10.059Z,61.76
2019-02-16T08:25:49.759Z,61.75
2019-02-16T08:28:36.499Z,60.80
2019-02-16T08:31:31.144Z,59.77
2019-02-16T08:34:22.737Z,58.71
2019-02-16T08:37:06.623Z,58.04
2019-02-16T08:40:07.587Z,58.13
2019-02-16T08:43:03.075Z,57.54
2019-02-16T08:46:00.603Z,57.67
2019-02-16T08:48:52.524Z,56.87
2019-02-16T08:51:42.751Z,55.91
2019-02-16T08:54:34.382Z,56.14
2019-02-16T08:57:26.230Z,56.00
2019-02-16T09:00:17.809Z,56.00
2019-02-16T09:02:59.324Z,55.03
2019-02-16T09:06:03.114Z,54.66
2019-02-16T09:09:07.274Z,54.96
2019-02-16T09:12:07.884Z,54.54
2019-02-16T09:14:58.193Z,54.86
2019-02-16T09:17:49.884Z,55.26
2019-02-16T09:20:34.243Z,54.69
2019-02-16T09:23:24.819Z,54.42
2019-02-16T09:26:25.670Z,54.46
2019-02-16T09:29:13.114Z,53.51
2019-02-16T09:32:13.750Z,53.32
2019-02-16T09:34:54.718Z,52.83
2019-02-16T09:37:52.308Z,53.10
2019-02-16T09:40:42.470Z,53.30
2019-02-16T09:43:39.709Z,52.80
2019-02-16T09:46:31.320Z,52.29
2019-02-16T09:49:21.581Z,52.10
2019-02-16T09:52:13.146Z,52.03
2019-02-16T09:55:02.229Z,51.39
2019-02-16T09:57:58.059Z,51.67
2019-02-16T10:00:47.334Z,52.22
2019-02-16T10:03:41.791Z,51.61
2019-02-16T10:06:41.937Z,50.94
2019-02-16T10:09:19.903Z,50.81
2019-02-16T10:12:07.575Z,49.96
2019-02-16T10:14:57.845Z,48.63
2019-02-16T10:17:37.913Z,48.15
2019-02-16T10:20:23.691Z,47.46
2019-02-16T10:23:13.165Z,47.92
2019-02-16T10:26:09.765Z,47.33
2019-02-16T10:29:07.434Z,47.27
2019-02-16T10:31:45.170Z,47.29
2019-02-16T10:34:27.850Z,47.49
2019-02-16T10:37:31.811Z,46.53
2019-02-16T10:40:21.150Z,46.34
2019-02-16T10:43:18.527Z,45.97
2019-02-16T10:46:08.781Z,45.77
2019-02-16T10:48:49.053Z,45.27
2019-02-16T10:51:31.680Z,45.50
2019-02-16T10:54:16.951Z,44.68
2019-02-16T10:57:07.041Z,44.82
2019-02-16T10:59:48.799Z,44.02
2019-02-16T11:02:39.475Z,44.20
2019-02-16T11:05:43.400Z,43.86
2019-02-16T11:08:22.573Z,43.82
2019-02-16T11:11:04.245Z,42.83
2019-02-16T11:13:54.854Z,42.80
2019-02-16T11:16:45.342Z,43.16
2019-02-16T11:19:40.591Z,42.68
2019-02-16T11:22:28.099Z,42.02
2019-02-16T11:25:17.058Z,42.41
2019-02-16T11:28:01.988Z,41.28
2019-02-16T11:30:43.618Z,40.67
2019-02-16T11:33:22.008Z,41.07
2019-02-16T11:36:12.251Z,38.75
2019-02-16T11:38:55.345Z,38.68
2019-02-16T11:41:41.353Z,38.43
2019-02-16T11:44:22.416Z,38.05
2019-02-16T11:47:29.091Z,38.65
2019-02-16T11:50:17.005Z,39.16
2019-02-16T11:53:07.455Z,38.62
2019-02-16T11:56:11.373Z,37.16
2019-02-16T11:59:02.823Z,36.36
2019-02-16T12:01:53.522Z,36.83
2019-02-16T12:04:33.814Z,37.07
2019-02-16T12:07:14.863Z,36.88
2019-02-16T12:10:05.469Z,37.67
2019-02-16T12:12:55.023Z,37.89
2019-02-16T12:15:47.815Z,38.88
2019-02-16T12:18:35.155Z,38.31
2019-02-16T12:21:25.615Z,37.79
2019-02-16T12:24:17.048Z,35.89
2019-02-16T12:27:11.636Z,35.44
2019-02-16T12:30:15.446Z,34.54
2019-02-16T12:33:05.770Z,34.41
2019-02-16T12:35:59.146Z,34.76
2019-02-16T12:38:49.377Z,34.39
2019-02-16T12:41:39.891Z,34.26
2019-02-16T12:44:25.022Z,34.12
2019-02-16T12:47:10.926Z,33.24
2019-02-16T12:49:50.362Z,32.94
2019-02-16T12:52:51.538Z,32.41
2019-02-16T12:55:42.121Z,32.68
2019-02-16T12:58:32.625Z,32.22
2019-02-16T13:01:27.007Z,32.38
2019-02-16T13:04:22.829Z,32.76
2019-02-16T13:07:17.262Z,32.39
2019-02-16T13:09:58.383Z,32.52
2019-02-16T13:12:52.733Z,32.76
2019-02-16T13:15:38.857Z,32.24
2019-02-16T13:18:29.075Z,31.87
2019-02-16T13:21:20.637Z,32.00
2019-02-16T13:24:14.982Z,32.34
2019-02-16T13:27:18.887Z,30.45
2019-02-16T13:30:13.247Z,30.71
2019-02-16T13:33:26.016Z,30.51
2019-02-16T13:36:22.292Z,30.24
2019-02-16T13:39:29.043Z,31.16
2019-02-16T13:42:26.629Z,31.67
2019-02-16T13:45:23.909Z,30.75
2019-02-16T13:48:08.266Z,31.18
2019-02-16T13:50:49.021Z,31.44
2019-02-16T13:53:33.581Z,31.41
2019-02-16T13:56:34.126Z,31.54
2019-02-16T13:59:12.640Z,30.36
2019-02-16T14:01:57.693Z,30.92
2019-02-16T14:04:55.478Z,30.29
2019-02-16T14:07:50.126Z,30.19
2019-02-16T14:10:40.049Z,30.06
2019-02-16T14:13:37.338Z,30.58
2019-02-16T14:16:27.686Z,29.67
2019-02-16T14:18:59.668Z,30.31
2019-02-16T14:21:31.711Z,30.99
2019-02-16T14:24:03.798Z,31.29
2019-02-16T14:26:35.823Z,31.13
2019-02-16T14:29:07.784Z,30.65
2019-02-16T14:31:39.819Z,30.65
2019-02-16T14:34:11.805Z,30.41
2019-02-16T14:39:42.949Z,30.50
2019-02-16T14:42:14.945Z,31.19
2019-02-16T14:44:47.072Z,31.79
2019-02-16T14:47:19.065Z,32.07
2019-02-16T14:49:51.060Z,31.76
2019-02-16T14:52:23.101Z,31.95
2019-02-16T14:54:55.128Z,32.41
2019-02-16T14:57:27.170Z,32.85
2019-02-16T14:59:59.209Z,32.87
2019-02-16T15:02:31.207Z,33.03
2019-02-16T15:05:03.205Z,32.56
2019-02-16T15:07:35.275Z,33.09
2019-02-16T15:10:08.182Z,33.17
2019-02-16T15:12:40.205Z,33.73
2019-02-16T15:15:12.267Z,34.21
2019-02-16T15:17:44.278Z,34.66
2019-02-16T15:20:16.305Z,35.21
2019-02-16T15:22:48.461Z,35.99
2019-02-16T15:25:20.498Z,36.35
2019-02-16T15:27:52.543Z,36.28
2019-02-16T15:30:24.527Z,36.45
2019-02-16T15:32:56.550Z,36.77
2019-02-16T15:35:28.540Z,37.17
2019-02-16T15:38:20.104Z,37.71
2019-02-16T15:40:52.132Z,38.17
2019-02-16T15:43:24.184Z,38.60
2019-02-16T15:45:56.223Z,38.83
2019-02-16T15:48:28.289Z,39.08
2019-02-16T15:51:00.315Z,39.45
2019-02-16T15:53:32.329Z,39.61
2019-02-16T15:56:10.590Z,39.80
2019-02-16T15:58:38.359Z,40.03
2019-02-16T16:01:10.470Z,40.09
2019-02-16T16:03:42.561Z,39.88
2019-02-16T16:06:34.100Z,39.74
2019-02-16T16:09:25.676Z,40.16
2019-02-16T16:12:17.245Z,40.66
2019-02-16T16:18:08.340Z,42.55
2019-02-16T16:23:47.013Z,43.64
2019-02-16T16:26:38.577Z,44.39
2019-02-16T16:29:30.155Z,45.12
2019-02-16T16:32:21.718Z,45.74
2019-02-16T16:35:13.346Z,46.17
2019-02-16T16:38:04.937Z,46.66
2019-02-16T16:40:48.184Z,47.22
2019-02-16T16:43:39.827Z,47.82
2019-02-16T16:46:31.476Z,48.51
2019-02-16T16:49:23.049Z,49.17
2019-02-16T16:55:12.174Z,49.90
2019-02-16T16:58:03.729Z,50.47
2019-02-16T17:00:46.154Z,51.09
2019-02-16T17:03:37.718Z,51.59
2019-02-16T17:06:29.321Z,51.93
2019-02-16T17:09:20.892Z,52.01
2019-02-16T17:12:12.485Z,52.46
2019-02-16T17:15:04.073Z,52.75
2019-02-16T17:17:55.666Z,52.76
2019-02-16T17:20:47.264Z,52.51
2019-02-16T17:23:38.854Z,52.40
2019-02-16T17:26:23.904Z,52.49
2019-02-16T17:29:15.498Z,52.41
2019-02-16T17:31:58.677Z,52.45
2019-02-16T17:34:50.306Z,53.08
2019-02-16T17:37:41.959Z,53.71
2019-02-16T17:40:32.892Z,53.87
2019-02-16T17:43:23.317Z,53.72
2019-02-16T17:46:27.336Z,53.76
2019-02-16T17:49:12.701Z,54.37
2019-02-16T17:52:07.047Z,54.93
2019-02-16T17:55:13.848Z,55.54
2019-02-16T17:58:02.090Z,56.09
2019-02-16T18:01:08.945Z,56.43
2019-02-16T18:04:03.477Z,56.64
2019-02-16T18:06:57.877Z,57.24
2019-02-16T18:09:48.163Z,57.67
2019-02-16T18:12:42.791Z,58.16
2019-02-16T18:15:46.520Z,58.43
2019-02-16T18:18:36.720Z,58.77
2019-02-16T18:21:19.435Z,59.18
2019-02-16T18:24:12.061Z,59.65
2019-02-16T18:27:02.296Z,59.54
2019-02-16T18:29:52.825Z,59.09
2019-02-16T18:32:43.413Z,59.04
2019-02-16T18:35:33.793Z,58.80
2019-02-16T18:38:20.768Z,58.78
2019-02-16T18:41:21.658Z,59.27
2019-02-16T18:44:16.052Z,59.72
2019-02-16T18:47:07.689Z,60.44
2019-02-16T18:49:58.165Z,59.39
2019-02-16T18:52:41.606Z,60.24
2019-02-16T18:55:36.386Z,60.81
2019-02-16T18:58:26.585Z,61.15
2019-02-16T19:01:12.440Z,60.95
2019-02-16T19:03:57.669Z,61.17
2019-02-16T19:06:43.133Z,61.59
2019-02-16T19:09:22.032Z,62.03
2019-02-16T19:12:13.663Z,61.96
2019-02-16T19:15:11.297Z,62.04
2019-02-16T19:18:02.875Z,61.99
2019-02-16T19:20:54.472Z,62.04
2019-02-16T19:23:44.660Z,62.25
2019-02-16T19:26:34.684Z,61.96
2019-02-16T19:29:25.152Z,61.81
2019-02-16T19:32:19.896Z,62.08
2019-02-16T19:35:14.245Z,62.12
2019-02-16T19:37:57.933Z,62.31
2019-02-16T19:40:48.591Z,62.40
2019-02-16T19:43:55.579Z,62.44
2019-02-16T19:46:45.681Z,62.95
2019-02-16T19:49:43.236Z,63.11
2019-02-16T19:52:25.410Z,63.51
2019-02-16T19:55:01.746Z,63.63
2019-02-16T19:58:08.653Z,63.55
2019-02-16T20:01:03.031Z,63.50
2019-02-16T20:03:46.358Z,63.66
2019-02-16T20:06:43.951Z,63.94
2019-02-16T20:09:21.274Z,64.12
2019-02-16T20:12:15.901Z,63.80
2019-02-16T20:15:04.653Z,63.82
2019-02-16T20:17:51.355Z,63.74
2019-02-16T20:20:46.160Z,63.84
2019-02-16T20:23:43.594Z,63.77
2019-02-16T20:26:35.197Z,63.89
2019-02-16T20:29:18.503Z,64.02
2019-02-16T20:32:07.810Z,64.03
2019-02-16T20:34:59.478Z,64.15
2019-02-16T20:37:39.328Z,64.32
2019-02-16T20:40:30.961Z,64.01
2019-02-16T20:43:28.619Z,63.99
2019-02-16T20:46:32.250Z,64.17
2019-02-16T20:49:23.925Z,64.11
2019-02-16T20:52:18.550Z,64.35
2019-02-16T20:55:02.294Z,64.40
2019-02-16T20:58:06.001Z,64.82
2019-02-16T21:00:54.463Z,65.13
2019-02-16T21:03:46.051Z,65.45
2019-02-16T21:06:33.616Z,65.75
2019-02-16T21:09:37.425Z,65.62
2019-02-16T21:12:17.428Z,65.30
2019-02-16T21:15:15.202Z,65.45
2019-02-16T21:18:12.630Z,65.51
2019-02-16T21:21:07.121Z,65.59
2019-02-16T21:23:57.718Z,65.38
2019-02-16T21:26:52.639Z,65.50
2019-02-16T21:29:39.665Z,65.87
2019-02-16T21:32:37.647Z,66.30
2019-02-16T21:35:32.054Z,66.26
2019-02-16T21:38:13.817Z,66.24
2019-02-16T21:41:17.795Z,65.61
2019-02-16T21:44:03.051Z,65.82
2019-02-16T21:46:57.718Z,66.24
2019-02-16T21:49:53.890Z,66.66
2019-02-16T21:52:44.282Z,67.02
2019-02-16T21:55:25.482Z,66.95
2019-02-16T21:58:20.118Z,67.16
2019-02-16T22:01:15.404Z,67.80
2019-02-16T22:04:16.252Z,67.87
2019-02-16T22:07:06.859Z,68.21
2019-02-16T22:10:01.485Z,68.56
2019-02-16T22:12:59.041Z,68.97
2019-02-16T22:15:31.085Z,69.70
2019-02-16T22:18:03.183Z,69.64
2019-02-16T22:20:35.183Z,69.10
2019-02-16T22:23:07.258Z,68.83
2019-02-16T22:25:39.294Z,69.16
2019-02-16T22:28:18.210Z,69.13
2019-02-16T22:30:45.303Z,69.12
2019-02-16T22:33:17.310Z,69.00
2019-02-16T22:35:49.337Z,69.37
2019-02-16T22:38:21.365Z,69.49
2019-02-16T22:40:53.391Z,69.32
2019-02-16T22:43:25.461Z,69.40
2019-02-16T22:45:57.488Z,69.58
2019-02-16T22:48:29.479Z,70.15
2019-02-16T22:51:01.544Z,70.67
2019-02-16T22:53:33.575Z,70.75
2019-02-16T22:56:05.626Z,71.02
2019-02-16T22:58:37.662Z,71.17
2019-02-16T23:01:09.994Z,70.71
2019-02-16T23:03:41.981Z,70.84
2019-02-16T23:06:14.255Z,70.81
2019-02-16T23:08:46.261Z,70.71
2019-02-16T23:11:18.304Z,70.66
2019-02-16T23:13:50.367Z,70.87
2019-02-16T23:16:22.338Z,70.82
2019-02-16T23:18:54.325Z,71.04
2019-02-16T23:21:26.389Z,71.25
2019-02-16T23:23:58.398Z,71.14
2019-02-16T23:26:30.429Z,71.12
2019-02-16T23:29:02.428Z,71.04
2019-02-16T23:31:34.465Z,71.08
2019-02-16T23:34:06.460Z,71.41
2019-02-16T23:36:38.505Z,71.31
2019-02-16T23:39:11.363Z,71.57
2019-02-16T23:41:43.396Z,71.87
2019-02-16T23:44:15.411Z,71.79
2019-02-16T23:46:47.399Z,71.80
2019-02-16T23:49:19.416Z,72.15
2019-02-16T23:51:51.470Z,72.40
2019-02-16T23:54:23.472Z,72.39
2019-02-16T23:56:55.498Z,72.32
2019-02-16T23:59:27.477Z,72.13
